createdAt,value
2023-04-18T04:45:10.556Z,11.30
2023-04-18T04:47:37.497Z,10.93
2023-04-18T04:50:07.427Z,11.73
2023-04-18T04:52:34.602Z,10.32
2023-04-18T04:55:01.725Z,11.57
2023-04-18T04:57:28.775Z,10.20
2023-04-18T04:59:55.790Z,10.82
2023-04-18T05:02:23.679Z,11.23
2023-04-18T05:04:54.611Z,10.38
2023-04-18T05:07:22.001Z,10.90
2023-04-18T05:09:49.738Z,9.93
2023-04-18T05:12:16.772Z,10.52
2023-04-18T05:14:43.857Z,11.20
2023-04-18T05:17:10.952Z,10.38
2023-04-18T05:19:38.042Z,10.40
2023-04-18T05:22:04.926Z,8.50
2023-04-18T05:24:32.657Z,9.73
2023-04-18T05:26:59.700Z,8.90
2023-04-18T05:29:26.542Z,9.05
2023-04-18T05:31:53.380Z,8.30
2023-04-18T05:34:20.246Z,8.80
2023-04-18T05:36:47.961Z,8.20
2023-04-18T05:39:14.838Z,8.03
2023-04-18T05:41:42.456Z,7.78
2023-04-18T05:44:09.541Z,7.88
2023-04-18T05:46:36.456Z,8.10
2023-04-18T05:49:03.686Z,7.63
2023-04-18T05:51:31.421Z,6.93
2023-04-18T05:53:58.285Z,7.63
2023-04-18T05:56:25.300Z,7.90
2023-04-18T05:58:52.156Z,8.53
2023-04-18T06:01:18.992Z,9.68
2023-04-18T06:03:46.133Z,10.35
2023-04-18T06:06:13.753Z,10.32
2023-04-18T06:08:40.728Z,9.48
2023-04-18T06:11:09.047Z,8.68
2023-04-18T06:13:37.257Z,8.88
2023-04-18T06:16:04.233Z,7.68
2023-04-18T06:18:31.405Z,7.68
2023-04-18T06:20:58.255Z,7.10
2023-04-18T06:23:25.180Z,6.27
2023-04-18T06:25:52.261Z,6.38
2023-04-18T06:28:19.124Z,6.25
2023-04-18T06:30:45.998Z,6.63
2023-04-18T06:33:12.850Z,6.05
2023-04-18T06:35:39.760Z,6.47
2023-04-18T06:38:06.722Z,6.53
2023-04-18T06:40:33.551Z,6.45
2023-04-18T06:43:00.406Z,7.03
2023-04-18T06:45:27.280Z,6.68
2023-04-18T06:47:54.185Z,5.60
2023-04-18T06:50:21.156Z,5.47
2023-04-18T06:52:48.039Z,5.53
2023-04-18T06:55:14.904Z,5.93
2023-04-18T06:57:42.624Z,5.07
2023-04-18T07:00:10.512Z,5.53
2023-04-18T07:02:38.595Z,4.47
2023-04-18T07:05:06.653Z,4.80
2023-04-18T07:07:34.377Z,5.22
2023-04-18T07:10:01.697Z,4.50
2023-04-18T07:12:28.639Z,5.30
2023-04-18T07:14:55.539Z,4.07
2023-04-18T07:17:22.408Z,4.90
2023-04-18T07:19:49.370Z,5.40
2023-04-18T07:22:16.301Z,5.35
2023-04-18T07:24:44.128Z,5.47
2023-04-18T07:27:11.002Z,5.10
2023-04-18T07:29:38.154Z,5.03
2023-04-18T07:32:06.233Z,5.30
2023-04-18T07:34:36.228Z,4.82
2023-04-18T07:37:03.319Z,5.57
2023-04-18T07:39:31.902Z,6.30
2023-04-18T07:41:58.974Z,5.80
2023-04-18T07:44:25.872Z,5.73
2023-04-18T07:46:53.156Z,5.57
2023-04-18T07:49:20.040Z,5.40
2023-04-18T07:51:46.984Z,5.63
2023-04-18T07:54:13.879Z,5.50
2023-04-18T07:56:41.056Z,5.60
2023-04-18T07:59:07.919Z,7.17
2023-04-18T08:01:34.809Z,6.75
2023-04-18T08:04:02.249Z,6.00
2023-04-18T08:06:29.625Z,6.32
2023-04-18T08:08:58.952Z,5.40
2023-04-18T08:11:26.249Z,5.60
2023-04-18T08:13:53.146Z,5.37
2023-04-18T08:16:20.083Z,5.88
2023-04-18T08:18:46.977Z,4.70
2023-04-18T08:21:13.881Z,4.65
2023-04-18T08:23:40.862Z,4.55
2023-04-18T08:26:07.721Z,4.40
2023-04-18T08:28:34.861Z,4.53
2023-04-18T08:31:01.895Z,4.70
2023-04-18T08:33:29.561Z,5.20
2023-04-18T08:35:56.466Z,4.47
2023-04-18T08:38:23.425Z,4.45
2023-04-18T08:40:50.324Z,4.45
2023-04-18T08:43:17.177Z,5.20
2023-04-18T08:45:44.925Z,5.00
2023-04-18T08:48:13.828Z,4.88
2023-04-18T08:50:44.899Z,3.97
2023-04-18T08:53:12.328Z,4.17
2023-04-18T08:55:42.076Z,5.10
2023-04-18T08:58:08.925Z,5.00
2023-04-18T09:00:35.726Z,4.60
2023-04-18T09:03:03.950Z,4.10
2023-04-18T09:05:31.105Z,4.22
2023-04-18T09:07:58.599Z,3.87
2023-04-18T09:10:33.541Z,3.70
2023-04-18T09:13:03.392Z,3.42
2023-04-18T09:15:30.893Z,3.33
2023-04-18T09:17:59.767Z,3.08
2023-04-18T09:20:34.685Z,2.43
2023-04-18T09:23:14.783Z,3.00
2023-04-18T09:25:44.305Z,3.15
2023-04-18T09:28:28.820Z,3.13
2023-04-18T09:31:07.987Z,2.65
2023-04-18T09:33:36.731Z,2.72
2023-04-18T09:36:22.756Z,3.15
2023-04-18T09:38:54.506Z,3.20
2023-04-18T09:41:23.359Z,3.50
2023-04-18T09:43:50.370Z,3.17
2023-04-18T09:46:22.039Z,2.92
2023-04-18T09:48:48.956Z,2.78
2023-04-18T09:51:16.675Z,2.70
2023-04-18T09:53:45.115Z,2.53
2023-04-18T09:56:27.199Z,3.20
2023-04-18T09:59:11.780Z,4.18
2023-04-18T10:01:45.030Z,4.60
2023-04-18T10:04:14.504Z,5.15
2023-04-18T10:06:43.121Z,5.72
2023-04-18T10:09:10.971Z,5.40
2023-04-18T10:11:38.664Z,6.15
2023-04-18T10:14:09.793Z,5.13
2023-04-18T10:16:37.992Z,5.53
2023-04-18T10:19:28.750Z,5.78
2023-04-18T10:21:57.490Z,4.97
2023-04-18T10:24:49.854Z,4.85
2023-04-18T10:27:18.037Z,4.72
2023-04-18T10:29:52.822Z,5.18
2023-04-18T10:32:23.841Z,4.88
2023-04-18T10:34:53.440Z,5.07
2023-04-18T10:37:20.447Z,4.47
2023-04-18T10:39:48.784Z,4.80
2023-04-18T10:42:15.654Z,5.30
2023-04-18T10:44:42.530Z,5.10
2023-04-18T10:47:09.412Z,5.07
2023-04-18T10:49:39.553Z,5.00
2023-04-18T10:52:10.148Z,5.05
2023-04-18T10:54:59.128Z,4.80
2023-04-18T10:57:41.606Z,4.75
2023-04-18T11:00:13.971Z,4.47
2023-04-18T11:02:48.090Z,5.38
2023-04-18T11:05:20.781Z,5.13
2023-04-18T11:07:51.773Z,5.00
2023-04-18T11:10:25.605Z,5.10
2023-04-18T11:12:53.532Z,4.97
2023-04-18T11:15:24.801Z,5.50
2023-04-18T11:17:59.876Z,5.13
2023-04-18T11:20:27.181Z,4.93
2023-04-18T11:22:55.035Z,5.37
2023-04-18T11:25:36.410Z,4.93
2023-04-18T11:28:04.329Z,4.72
2023-04-18T11:30:41.641Z,4.23
2023-04-18T11:33:09.591Z,3.65
2023-04-18T11:35:46.685Z,3.25
2023-04-18T11:38:15.872Z,3.40
2023-04-18T11:40:49.682Z,3.10
2023-04-18T11:43:24.505Z,3.78
2023-04-18T11:46:01.804Z,3.28
2023-04-18T11:48:50.257Z,3.40
2023-04-18T11:51:36.953Z,3.35
2023-04-18T11:54:04.324Z,3.80
2023-04-18T11:56:32.976Z,2.90
2023-04-18T11:59:08.970Z,3.30
2023-04-18T12:01:35.797Z,3.60
2023-04-18T12:04:09.145Z,3.28
2023-04-18T12:06:53.440Z,2.97
2023-04-18T12:09:22.760Z,2.75
2023-04-18T12:12:02.851Z,2.78
2023-04-18T12:14:30.438Z,3.00
2023-04-18T12:16:57.344Z,3.20
2023-04-18T12:19:29.374Z,2.73
2023-04-18T12:22:01.033Z,3.28
2023-04-18T12:24:29.078Z,3.17
2023-04-18T12:26:58.078Z,3.65
2023-04-18T12:29:25.757Z,3.10
2023-04-18T12:31:53.000Z,2.72
2023-04-18T12:34:20.278Z,3.50
2023-04-18T12:36:47.232Z,2.90
2023-04-18T12:39:14.100Z,3.03
2023-04-18T12:41:41.042Z,3.20
2023-04-18T12:44:07.945Z,2.90
2023-04-18T12:46:34.906Z,2.63
2023-04-18T12:49:01.840Z,2.13
2023-04-18T12:51:28.783Z,2.85
2023-04-18T12:53:56.376Z,2.95
2023-04-18T12:56:23.333Z,2.83
2023-04-18T12:58:50.781Z,2.50
2023-04-18T13:01:18.087Z,2.42
2023-04-18T13:03:48.647Z,3.17
2023-04-18T13:06:20.686Z,3.42
2023-04-18T13:08:47.544Z,2.63
2023-04-18T13:11:14.865Z,3.25
2023-04-18T13:13:41.710Z,2.67
2023-04-18T13:16:08.629Z,3.40
2023-04-18T13:18:35.514Z,2.95
2023-04-18T13:21:02.429Z,3.30
2023-04-18T13:23:29.301Z,3.35
2023-04-18T13:25:56.164Z,2.88
2023-04-18T13:28:24.226Z,2.80
2023-04-18T13:30:51.047Z,2.22
2023-04-18T13:33:18.029Z,2.85
2023-04-18T13:35:44.951Z,2.72
2023-04-18T13:38:11.741Z,2.72
2023-04-18T13:40:38.838Z,2.60
2023-04-18T13:43:05.840Z,2.47
2023-04-18T13:45:32.739Z,2.63
2023-04-18T13:47:59.682Z,2.63
2023-04-18T13:50:26.630Z,2.80
2023-04-18T13:52:54.644Z,2.90
2023-04-18T13:55:21.864Z,2.80
2023-04-18T13:57:48.732Z,2.40
2023-04-18T14:00:17.055Z,2.33
2023-04-18T14:02:44.013Z,2.43
2023-04-18T14:05:11.436Z,2.95
2023-04-18T14:07:38.525Z,2.35
2023-04-18T14:10:05.907Z,2.67
2023-04-18T14:12:32.763Z,2.40
2023-04-18T14:14:59.728Z,2.65
2023-04-18T14:17:26.649Z,2.40
2023-04-18T14:19:53.612Z,2.08
2023-04-18T14:22:20.631Z,2.80
2023-04-18T14:24:47.479Z,2.40
2023-04-18T14:27:14.373Z,2.20
2023-04-18T14:29:41.395Z,2.20
2023-04-18T14:32:08.528Z,3.22
2023-04-18T14:34:36.777Z,2.80
2023-04-18T14:37:05.060Z,2.80
2023-04-18T14:39:32.107Z,2.60
2023-04-18T14:41:58.899Z,2.38
2023-04-18T14:44:25.833Z,2.60
2023-04-18T14:46:52.750Z,2.40
2023-04-18T14:49:19.611Z,2.53
2023-04-18T14:51:46.431Z,2.65
2023-04-18T14:54:13.362Z,2.33
2023-04-18T14:56:40.192Z,2.83
2023-04-18T14:59:07.032Z,2.40
2023-04-18T15:01:33.956Z,2.70
2023-04-18T15:04:01.053Z,3.08
2023-04-18T15:06:28.425Z,2.50
2023-04-18T15:08:55.298Z,3.15
2023-04-18T15:11:23.127Z,2.95
2023-04-18T15:13:50.619Z,2.92
2023-04-18T15:16:17.510Z,3.42
2023-04-18T15:18:45.143Z,3.00
2023-04-18T15:21:12.054Z,2.83
2023-04-18T15:23:39.022Z,2.38
2023-04-18T15:26:06.427Z,2.65
2023-04-18T15:28:33.335Z,2.40
2023-04-18T15:31:00.226Z,1.98
2023-04-18T15:33:27.143Z,2.20
2023-04-18T15:35:56.184Z,1.83
2023-04-18T15:38:23.223Z,1.98
2023-04-18T15:40:50.472Z,1.88
2023-04-18T15:43:17.511Z,1.88
2023-04-18T15:45:44.604Z,2.10
2023-04-18T15:48:13.100Z,2.13
2023-04-18T15:50:41.941Z,1.85
2023-04-18T15:53:08.808Z,1.70
2023-04-18T15:55:35.750Z,1.75
2023-04-18T15:58:02.691Z,2.10
2023-04-18T16:00:29.560Z,2.30
2023-04-18T16:02:56.563Z,1.85
2023-04-18T16:05:23.615Z,2.10
2023-04-18T16:07:52.254Z,2.42
2023-04-18T16:10:19.384Z,2.35
2023-04-18T16:12:46.325Z,1.58
2023-04-18T16:15:13.561Z,2.30
2023-04-18T16:17:40.481Z,2.00
2023-04-18T16:20:09.044Z,2.72
2023-04-18T16:22:36.470Z,2.75
2023-04-18T16:25:04.105Z,2.20
2023-04-18T16:27:33.079Z,2.22
2023-04-18T16:29:59.970Z,2.00
2023-04-18T16:32:26.894Z,2.45
2023-04-18T16:34:53.887Z,2.30
2023-04-18T16:37:20.768Z,2.00
2023-04-18T16:39:47.635Z,2.70
2023-04-18T16:42:15.872Z,2.53
2023-04-18T16:44:44.737Z,1.80
2023-04-18T16:47:11.680Z,2.05
2023-04-18T16:49:38.650Z,2.28
2023-04-18T16:52:05.536Z,2.30
2023-04-18T16:54:32.531Z,2.10
2023-04-18T16:56:59.446Z,2.60
2023-04-18T16:59:27.354Z,1.77
2023-04-18T17:01:54.293Z,2.22
2023-04-18T17:04:21.779Z,2.08
2023-04-18T17:06:50.359Z,2.33
2023-04-18T17:09:19.789Z,2.60
2023-04-18T17:11:46.908Z,2.50
2023-04-18T17:14:14.106Z,2.55
2023-04-18T17:16:42.231Z,2.08
2023-04-18T17:19:10.153Z,2.50
2023-04-18T17:21:37.758Z,2.83
2023-04-18T17:24:06.957Z,2.58
2023-04-18T17:26:35.444Z,2.80
2023-04-18T17:29:04.132Z,2.30
2023-04-18T17:31:31.942Z,2.80
2023-04-18T17:33:59.767Z,3.27
2023-04-18T17:36:27.262Z,3.15
2023-04-18T17:38:54.291Z,3.20
2023-04-18T17:41:21.748Z,2.58
2023-04-18T17:43:50.844Z,2.78
2023-04-18T17:46:17.863Z,2.83
2023-04-18T17:48:45.840Z,2.80
2023-04-18T17:51:12.743Z,3.08
2023-04-18T17:53:39.634Z,3.42
2023-04-18T17:56:06.558Z,2.95
2023-04-18T17:58:33.633Z,4.05
2023-04-18T18:01:00.703Z,5.43
2023-04-18T18:03:27.812Z,5.55
2023-04-18T18:05:58.188Z,5.18
2023-04-18T18:08:25.721Z,4.13
2023-04-18T18:10:54.868Z,3.50
2023-04-18T18:13:21.673Z,4.17
2023-04-18T18:15:48.461Z,4.05
2023-04-18T18:18:15.248Z,3.55
2023-04-18T18:20:43.235Z,3.70
2023-04-18T18:23:10.240Z,3.33
2023-04-18T18:25:37.740Z,4.05
2023-04-18T18:28:04.787Z,3.35
2023-04-18T18:30:31.821Z,3.70
2023-04-18T18:32:59.067Z,3.95
2023-04-18T18:35:26.025Z,4.30
2023-04-18T18:37:52.861Z,3.78
2023-04-18T18:40:19.767Z,3.42
2023-04-18T18:42:46.760Z,3.83
2023-04-18T18:45:13.657Z,3.78
2023-04-18T18:47:40.887Z,4.00
2023-04-18T18:50:08.087Z,4.05
2023-04-18T18:52:35.052Z,3.45
2023-04-18T18:55:02.010Z,3.67
2023-04-18T18:57:28.916Z,3.92
2023-04-18T18:59:56.053Z,3.83
2023-04-18T19:02:23.319Z,3.65
2023-04-18T19:04:50.316Z,3.20
2023-04-18T19:07:17.220Z,3.50
2023-04-18T19:09:45.976Z,3.22
2023-04-18T19:12:12.824Z,3.63
2023-04-18T19:14:41.902Z,3.30
2023-04-18T19:17:09.335Z,3.00
2023-04-18T19:19:36.283Z,3.60
2023-04-18T19:22:03.201Z,3.00
2023-04-18T19:24:31.965Z,2.67
2023-04-18T19:26:59.732Z,3.08
2023-04-18T19:29:26.754Z,3.00
2023-04-18T19:31:53.659Z,3.15
2023-04-18T19:34:22.130Z,3.08
2023-04-18T19:36:49.047Z,3.50
2023-04-18T19:39:16.519Z,3.00
2023-04-18T19:41:43.795Z,2.90
2023-04-18T19:44:10.658Z,3.10
2023-04-18T19:46:37.600Z,2.88
2023-04-18T19:49:04.521Z,2.85
2023-04-18T19:51:31.404Z,2.65
2023-04-18T19:53:58.413Z,2.90
2023-04-18T19:56:25.315Z,2.75
2023-04-18T19:58:52.190Z,2.50
2023-04-18T20:01:20.915Z,2.30
2023-04-18T20:03:48.438Z,2.05
2023-04-18T20:06:16.768Z,2.50
2023-04-18T20:08:45.790Z,2.78
2023-04-18T20:11:16.705Z,2.60
2023-04-18T20:13:43.555Z,2.30
2023-04-18T20:16:13.559Z,2.28
2023-04-18T20:18:41.927Z,2.10
2023-04-18T20:21:09.800Z,2.60
2023-04-18T20:23:38.038Z,2.50
2023-04-18T20:26:04.933Z,2.25
2023-04-18T20:28:32.125Z,2.10
2023-04-18T20:30:59.326Z,2.40
2023-04-18T20:33:26.255Z,2.05
2023-04-18T20:35:54.769Z,2.17
2023-04-18T20:38:25.933Z,2.17
2023-04-18T20:40:54.290Z,3.00
2023-04-18T20:43:21.401Z,2.75
2023-04-18T20:45:51.572Z,2.17
2023-04-18T20:48:19.102Z,2.10
2023-04-18T20:50:51.232Z,2.00
2023-04-18T20:53:22.434Z,2.20
2023-04-18T20:55:49.435Z,2.05
2023-04-18T20:58:16.828Z,2.03
2023-04-18T21:00:44.884Z,1.73
2023-04-18T21:03:15.910Z,2.20
2023-04-18T21:05:43.929Z,2.17
2023-04-18T21:08:13.656Z,1.88
2023-04-18T21:10:40.721Z,1.70
2023-04-18T21:13:09.174Z,1.85
2023-04-18T21:15:36.397Z,1.70
2023-04-18T21:18:03.334Z,1.90
2023-04-18T21:20:30.530Z,1.77
2023-04-18T21:22:57.417Z,1.60
2023-04-18T21:25:24.395Z,1.75
2023-04-18T21:27:51.295Z,1.88
2023-04-18T21:30:18.408Z,1.83
2023-04-18T21:32:46.168Z,1.80
2023-04-18T21:35:13.190Z,1.50
2023-04-18T21:37:40.196Z,1.80
2023-04-18T21:40:07.767Z,1.45
2023-04-18T21:42:35.635Z,1.65
2023-04-18T21:45:02.984Z,1.58
2023-04-18T21:47:31.845Z,1.55
2023-04-18T21:49:58.816Z,1.40
2023-04-18T21:52:25.639Z,1.17
2023-04-18T21:54:52.769Z,1.60
2023-04-18T21:57:19.790Z,1.70
2023-04-18T21:59:46.609Z,1.63
2023-04-18T22:02:13.474Z,1.83
2023-04-18T22:04:42.750Z,1.52
2023-04-18T22:07:10.045Z,1.38
2023-04-18T22:09:37.142Z,1.58
2023-04-18T22:12:04.650Z,1.50
2023-04-18T22:14:32.254Z,1.80
2023-04-18T22:16:59.483Z,1.70
2023-04-18T22:19:29.375Z,1.48
2023-04-18T22:21:56.405Z,1.40
2023-04-18T22:24:23.249Z,1.60
2023-04-18T22:26:50.234Z,1.60
2023-04-18T22:29:17.105Z,1.67
2023-04-18T22:31:44.180Z,1.40
2023-04-18T22:34:10.993Z,1.58
2023-04-18T22:36:38.032Z,1.67
2023-04-18T22:39:04.914Z,1.80
2023-04-18T22:41:31.727Z,1.52
2023-04-18T22:43:58.535Z,1.70
2023-04-18T22:46:26.132Z,1.35
2023-04-18T22:48:52.998Z,1.40
2023-04-18T22:51:20.221Z,1.60
2023-04-18T22:53:47.022Z,1.58
2023-04-18T22:56:13.874Z,2.00
2023-04-18T22:58:40.800Z,1.83
2023-04-18T23:01:07.771Z,1.40
2023-04-18T23:03:34.988Z,1.48
2023-04-18T23:06:02.027Z,1.45
2023-04-18T23:08:28.913Z,1.95
2023-04-18T23:10:55.884Z,1.77
2023-04-18T23:13:22.918Z,1.50
2023-04-18T23:15:49.841Z,1.33
2023-04-18T23:18:16.898Z,1.65
2023-04-18T23:20:43.692Z,1.50
2023-04-18T23:23:10.586Z,1.50
2023-04-18T23:25:37.784Z,1.58
2023-04-18T23:28:04.851Z,1.37
2023-04-18T23:30:31.858Z,1.70
2023-04-18T23:32:58.831Z,1.17
2023-04-18T23:35:25.772Z,1.67
2023-04-18T23:37:52.673Z,1.50
2023-04-18T23:40:19.802Z,1.23
2023-04-18T23:42:47.187Z,1.40
2023-04-18T23:45:14.092Z,1.07
2023-04-18T23:47:41.122Z,1.30
2023-04-18T23:50:08.636Z,1.20
2023-04-18T23:52:35.643Z,1.30
2023-04-18T23:55:02.486Z,1.73
2023-04-18T23:57:29.364Z,1.45
2023-04-18T23:59:56.270Z,1.47
